Sharpsville, IN

4:16 PM EST on December 02, 2016 (GMT -0500)
West Jane Drive | | Change Station

Elev 882 ft 40.38 °N, 86.10 °W | Updated 8 minutes ago

Overcast
Overcast
37.0 °F
Feels Like 37 °F
N
0.0
Wind Variable Wind from North
Gusts 1.2 mph

Today
High -- | Low -- °F
--% Chance of Precip.
Yesterday
High -- | Low -- °F
Precip. -- in
Pressure 30.25 in
Visibility 10.0 miles
Clouds Overcast 3200 ft
Windchill 37 °F
Dew Point 37 °F
Humidity 100%
Rainfall 0.02 in
Snow Depth Not available.
7:49 AM 5:18 PM
Waxing Crescent, 10% visible
METAR KOKK 022056Z AUTO 29008KT 10SM OVC032 03/01 A3022 RMK AO2 RAE1959UPB1959E24 SLP242 P0000 60000 T00280006 53012
Pressure 30.25 in
Visibility 10.0 miles
Clouds Overcast 3200 ft
Windchill 37 °F
Dew Point 37 °F
Humidity 100%
Rainfall 0.02 in
Snow Depth Not available.
7:49 AM 5:18 PM
Waxing Crescent, 10% visible
METAR KOKK 022056Z AUTO 29008KT 10SM OVC032 03/01 A3022 RMK AO2 RAE1959UPB1959E24 SLP242 P0000 60000 T00280006 53012

10-Day Weather Forecast

Almanac

Astronomy

Dec. 02, 2016 Rise Set
Actual Time
Civil Twilight
Nautical Twilight
Astronomical Twilight
Moon
Length of Visible Light
Length of Day
Tomorrow will be .
, % of the Moon is Illuminated

Today's Extremes

State Highs State Lows

Community

WunderPhotos

Upload Photos

1,955,369 photos uploaded!

WunderBlog® & News

Nearby

Air Quality

  Air Quality AQ Index Pollutant
Not available.

Snow Depth

Station Depth Elevation

Earthquake Activity

City Distance Mag. Time & Date
Minimum magnitude displayed is 2.5.

Coastal Water Temperatures

Place Temperature

Stations

Nearby Weather Stations

Station Location Temp. Windchill Dew Point Humidity Wind Precip. Elev Updated Type
                   

Watches & Warnings

There are currently no watches in effect.